createdAt,value
2017-07-18T00:01:54.166Z,16.10
2017-07-18T00:04:21.704Z,16.10
2017-07-18T00:06:49.245Z,16.10
2017-07-18T00:09:16.777Z,16.10
2017-07-18T00:11:44.289Z,16.00
2017-07-18T00:14:11.826Z,16.10
2017-07-18T00:16:39.356Z,16.00
2017-07-18T00:19:07.620Z,15.90
2017-07-18T00:21:35.159Z,15.80
2017-07-18T00:24:02.691Z,15.80
2017-07-18T00:26:30.242Z,15.80
2017-07-18T00:28:57.797Z,15.70
2017-07-18T00:31:25.317Z,15.60
2017-07-18T00:33:52.879Z,15.60
2017-07-18T00:36:20.424Z,15.60
2017-07-18T00:38:47.958Z,15.60
2017-07-18T00:41:15.496Z,15.60
2017-07-18T00:43:43.031Z,15.50
2017-07-18T00:46:11.316Z,15.50
2017-07-18T00:48:38.853Z,15.50
2017-07-18T00:51:06.372Z,15.50
2017-07-18T00:53:34.188Z,15.40
2017-07-18T00:56:01.714Z,15.40
2017-07-18T00:58:29.246Z,15.40
2017-07-18T01:00:57.058Z,15.40
2017-07-18T01:03:24.564Z,15.40
2017-07-18T01:05:52.078Z,15.40
2017-07-18T01:08:19.610Z,15.30
2017-07-18T01:10:47.177Z,15.30
2017-07-18T01:13:14.724Z,15.30
2017-07-18T01:15:42.269Z,15.20
2017-07-18T01:18:09.813Z,15.20
2017-07-18T01:20:37.374Z,15.30
2017-07-18T01:23:04.921Z,15.30
2017-07-18T01:25:32.444Z,15.30
2017-07-18T01:28:00.743Z,15.30
2017-07-18T01:30:29.040Z,15.30
2017-07-18T01:32:56.565Z,15.30
2017-07-18T01:35:24.106Z,15.20
2017-07-18T01:37:51.641Z,15.10
2017-07-18T01:40:19.218Z,15.10
2017-07-18T01:42:46.747Z,15.10
2017-07-18T01:45:14.662Z,15.10
2017-07-18T01:47:42.194Z,15.10
2017-07-18T01:50:09.713Z,15.10
2017-07-18T01:52:37.243Z,15.10
2017-07-18T01:55:04.750Z,15.10
2017-07-18T01:57:32.283Z,15.10
2017-07-18T01:59:59.822Z,15.10
2017-07-18T02:02:28.123Z,15.10
2017-07-18T02:04:55.661Z,15.10
2017-07-18T02:07:23.206Z,15.10
2017-07-18T02:09:50.760Z,15.20
2017-07-18T02:12:18.388Z,15.10
2017-07-18T02:14:46.400Z,15.10
2017-07-18T02:17:13.921Z,15.10
2017-07-18T02:19:41.454Z,15.10
2017-07-18T02:22:08.976Z,15.10
2017-07-18T02:24:36.479Z,15.10
2017-07-18T02:27:04.011Z,15.10
2017-07-18T02:29:31.542Z,15.10
2017-07-18T02:31:59.045Z,15.10
2017-07-18T02:34:26.574Z,15.10
2017-07-18T02:36:54.915Z,15.10
2017-07-18T02:39:22.494Z,15.10
2017-07-18T02:41:50.305Z,15.00
2017-07-18T02:44:18.326Z,15.00
2017-07-18T02:46:45.862Z,15.00
2017-07-18T02:49:13.394Z,15.00
2017-07-18T02:51:40.946Z,15.00
2017-07-18T02:54:08.476Z,15.00
2017-07-18T02:56:36.014Z,15.00
2017-07-18T02:59:03.561Z,15.00
2017-07-18T03:01:31.106Z,15.00
2017-07-18T03:03:58.632Z,15.00
2017-07-18T03:06:26.174Z,15.00
2017-07-18T03:08:53.696Z,15.00
2017-07-18T03:11:21.239Z,15.00
2017-07-18T03:13:48.777Z,15.00
2017-07-18T03:16:16.315Z,15.00
2017-07-18T03:18:44.619Z,15.00
2017-07-18T03:21:12.169Z,15.00
2017-07-18T03:23:39.694Z,15.00
2017-07-18T03:26:07.233Z,15.00
2017-07-18T03:28:34.772Z,15.00
2017-07-18T03:31:02.316Z,15.00
2017-07-18T03:33:29.828Z,15.00
2017-07-18T03:35:57.798Z,15.10
2017-07-18T03:38:25.321Z,15.10
2017-07-18T03:40:52.839Z,15.10
2017-07-18T03:43:21.478Z,15.10
2017-07-18T03:45:49.005Z,15.10
2017-07-18T03:48:16.522Z,15.20
2017-07-18T03:50:44.845Z,15.20
2017-07-18T03:53:12.379Z,15.20
2017-07-18T03:55:40.200Z,15.30
2017-07-18T03:58:07.718Z,15.10
2017-07-18T04:00:35.455Z,15.10
2017-07-18T04:03:03.543Z,15.10
2017-07-18T04:05:31.353Z,15.00
2017-07-18T04:07:58.907Z,15.10
2017-07-18T04:10:26.443Z,15.10
2017-07-18T04:12:53.984Z,15.10
2017-07-18T04:15:21.534Z,15.20
2017-07-18T04:17:49.066Z,15.20
2017-07-18T04:20:16.614Z,15.20
2017-07-18T04:22:44.141Z,15.20
2017-07-18T04:25:11.738Z,15.30
2017-07-18T04:27:40.502Z,15.30
2017-07-18T04:30:08.681Z,15.30
2017-07-18T04:32:36.334Z,15.40
2017-07-18T04:35:04.122Z,15.40
2017-07-18T04:37:31.681Z,15.50
2017-07-18T04:39:59.229Z,15.50
2017-07-18T04:42:26.781Z,15.50
2017-07-18T04:44:54.335Z,15.50
2017-07-18T04:47:21.911Z,15.50
2017-07-18T04:49:49.470Z,15.60
2017-07-18T04:52:17.301Z,15.60
2017-07-18T04:54:44.861Z,15.60
2017-07-18T04:57:12.403Z,15.70
2017-07-18T04:59:40.693Z,15.70
2017-07-18T05:02:08.241Z,15.70
2017-07-18T05:04:35.792Z,15.80
2017-07-18T05:07:04.107Z,15.90
2017-07-18T05:09:31.654Z,15.90
2017-07-18T05:11:59.189Z,16.10
2017-07-18T05:14:27.507Z,16.50
2017-07-18T05:16:55.038Z,16.50
2017-07-18T05:19:22.591Z,16.80
2017-07-18T05:21:50.135Z,17.10
2017-07-18T05:24:17.665Z,17.20
2017-07-18T05:26:45.200Z,17.30
2017-07-18T05:29:12.763Z,17.40
2017-07-18T05:31:40.304Z,17.50
2017-07-18T05:34:07.839Z,17.80
2017-07-18T05:36:35.786Z,18.00
2017-07-18T05:39:03.323Z,18.00
2017-07-18T05:41:30.856Z,18.30
2017-07-18T05:43:58.474Z,18.50
2017-07-18T05:46:26.004Z,18.80
2017-07-18T05:48:53.872Z,19.30
2017-07-18T05:51:21.396Z,19.70
2017-07-18T05:53:49.169Z,19.90
2017-07-18T05:56:16.735Z,20.00
2017-07-18T05:58:44.279Z,20.00
2017-07-18T06:01:11.856Z,20.20
2017-07-18T06:03:39.400Z,20.40
2017-07-18T06:06:06.944Z,20.50
2017-07-18T06:08:34.497Z,20.70
2017-07-18T06:11:02.029Z,20.60
2017-07-18T06:13:29.671Z,20.80
2017-07-18T06:15:57.212Z,20.90
2017-07-18T06:18:25.264Z,21.00
2017-07-18T06:20:52.783Z,21.30
2017-07-18T06:23:20.331Z,21.60
2017-07-18T06:25:47.906Z,21.80
2017-07-18T06:28:15.435Z,22.20
2017-07-18T06:30:42.989Z,22.30
2017-07-18T06:33:10.518Z,22.70
2017-07-18T06:35:38.056Z,22.60
2017-07-18T06:38:05.569Z,22.70
2017-07-18T06:40:33.110Z,22.90
2017-07-18T06:43:00.655Z,23.00
2017-07-18T06:45:28.205Z,23.00
2017-07-18T06:47:55.740Z,23.10
2017-07-18T06:50:24.027Z,23.40
2017-07-18T06:52:51.550Z,23.40
2017-07-18T06:55:19.071Z,23.30
2017-07-18T06:57:46.626Z,23.30
2017-07-18T07:00:14.138Z,23.40
2017-07-18T07:02:41.690Z,23.80
2017-07-18T07:05:09.221Z,24.00
2017-07-18T07:07:37.210Z,24.20
2017-07-18T07:10:04.720Z,24.70
2017-07-18T07:12:32.252Z,25.20
2017-07-18T07:14:59.931Z,25.70
2017-07-18T07:17:27.442Z,25.80
2017-07-18T07:19:54.973Z,25.90
2017-07-18T07:22:22.558Z,25.80
2017-07-18T07:24:50.122Z,25.60
2017-07-18T07:27:17.708Z,25.50
2017-07-18T07:29:46.068Z,25.80
2017-07-18T07:32:13.643Z,25.80
2017-07-18T07:34:42.000Z,26.40
2017-07-18T07:37:09.995Z,26.30
2017-07-18T07:39:38.334Z,26.20
2017-07-18T07:42:05.883Z,26.20
2017-07-18T07:44:33.460Z,26.40
2017-07-18T07:47:01.068Z,26.70
2017-07-18T07:49:28.641Z,26.30
2017-07-18T07:51:56.226Z,26.00
2017-07-18T07:54:23.788Z,26.10
2017-07-18T07:56:51.355Z,25.90
2017-07-18T07:59:19.178Z,26.30
2017-07-18T08:01:46.744Z,26.40
2017-07-18T08:04:14.354Z,26.50
2017-07-18T08:06:41.921Z,26.20
2017-07-18T08:09:09.513Z,26.10
2017-07-18T08:11:37.105Z,25.80
2017-07-18T08:14:04.794Z,25.70
2017-07-18T08:16:32.364Z,25.60
2017-07-18T08:18:59.918Z,25.70
2017-07-18T08:21:27.449Z,25.90
2017-07-18T08:23:55.001Z,25.60
2017-07-18T08:26:22.609Z,25.70
2017-07-18T08:28:50.954Z,25.80
2017-07-18T08:31:18.543Z,25.80
2017-07-18T08:33:46.842Z,26.50
2017-07-18T08:36:14.444Z,26.40
2017-07-18T08:38:41.996Z,26.70
2017-07-18T08:41:10.414Z,26.80
2017-07-18T08:43:37.978Z,26.30
2017-07-18T08:46:05.509Z,26.30
2017-07-18T08:48:33.074Z,26.50
2017-07-18T08:51:00.614Z,26.30
2017-07-18T08:53:28.160Z,26.40
2017-07-18T08:55:55.700Z,26.60
2017-07-18T08:58:23.264Z,26.50
2017-07-18T09:00:50.863Z,26.50
2017-07-18T09:03:18.426Z,26.30
2017-07-18T09:05:46.352Z,26.40
2017-07-18T09:08:14.338Z,26.60
2017-07-18T09:10:41.883Z,26.70
2017-07-18T09:13:09.827Z,26.90
2017-07-18T09:15:38.130Z,27.00
2017-07-18T09:18:05.649Z,26.90
2017-07-18T09:20:33.217Z,27.10
2017-07-18T09:23:01.528Z,27.10
2017-07-18T09:25:29.079Z,27.10
2017-07-18T09:27:56.643Z,27.20
2017-07-18T09:30:24.175Z,27.10
2017-07-18T09:32:51.713Z,27.40
2017-07-18T09:35:19.235Z,27.70
2017-07-18T09:37:46.818Z,27.80
2017-07-18T09:40:14.388Z,28.00
2017-07-18T09:42:41.939Z,28.10
2017-07-18T09:45:09.477Z,28.10
2017-07-18T09:47:37.002Z,28.20
2017-07-18T09:50:04.553Z,28.10
2017-07-18T09:52:32.856Z,28.00
2017-07-18T09:55:00.670Z,28.00
2017-07-18T09:57:28.217Z,27.80
2017-07-18T09:59:55.764Z,27.60
2017-07-18T10:02:23.346Z,27.70
2017-07-18T10:04:50.891Z,27.90
2017-07-18T10:07:18.440Z,27.90
2017-07-18T10:09:45.995Z,28.00
2017-07-18T10:12:13.510Z,28.10
2017-07-18T10:14:41.829Z,27.80
2017-07-18T10:17:09.370Z,27.70
2017-07-18T10:19:36.915Z,27.60
2017-07-18T10:22:04.436Z,27.40
2017-07-18T10:24:32.006Z,27.60
2017-07-18T10:27:00.694Z,28.10
2017-07-18T10:29:29.010Z,28.10
2017-07-18T10:31:56.561Z,28.10
2017-07-18T10:34:24.137Z,28.20
2017-07-18T10:36:51.718Z,28.30
2017-07-18T10:39:19.293Z,28.40
2017-07-18T10:41:47.156Z,28.50
2017-07-18T10:44:14.748Z,28.60
2017-07-18T10:46:42.363Z,28.30
2017-07-18T10:49:10.170Z,28.00
2017-07-18T10:51:37.691Z,28.10
2017-07-18T10:54:05.266Z,27.70
2017-07-18T10:56:33.129Z,27.80
2017-07-18T10:59:00.658Z,28.10
2017-07-18T11:01:28.171Z,28.30
2017-07-18T11:03:56.016Z,28.50
2017-07-18T11:06:23.564Z,28.70
2017-07-18T11:08:51.106Z,28.70
2017-07-18T11:11:18.652Z,28.70
2017-07-18T11:13:46.197Z,28.60
2017-07-18T11:16:13.751Z,28.60
2017-07-18T11:18:41.574Z,28.90
2017-07-18T11:21:09.160Z,29.40
2017-07-18T11:23:37.505Z,29.50
2017-07-18T11:26:05.337Z,29.50
2017-07-18T11:28:32.882Z,29.30
2017-07-18T11:31:00.445Z,29.00
2017-07-18T11:33:28.262Z,28.90
2017-07-18T11:35:55.787Z,29.00
2017-07-18T11:38:23.326Z,28.90
2017-07-18T11:40:50.889Z,28.60
2017-07-18T11:43:18.437Z,28.60
2017-07-18T11:45:45.985Z,28.70
2017-07-18T11:48:14.298Z,29.00
2017-07-18T11:50:41.839Z,29.00
2017-07-18T11:53:09.422Z,29.30
2017-07-18T11:55:37.482Z,29.50
2017-07-18T11:58:05.058Z,29.40
2017-07-18T12:00:32.638Z,29.30
2017-07-18T12:03:00.471Z,29.00
2017-07-18T12:05:28.044Z,28.40
2017-07-18T12:07:55.620Z,28.10
2017-07-18T12:10:23.212Z,28.10
2017-07-18T12:12:51.542Z,28.80
2017-07-18T12:15:19.080Z,28.80
2017-07-18T12:17:46.653Z,28.90
2017-07-18T12:20:14.163Z,28.90
2017-07-18T12:22:41.717Z,28.60
2017-07-18T12:25:09.299Z,28.50
2017-07-18T12:27:37.198Z,28.60
2017-07-18T12:30:05.203Z,28.90
2017-07-18T12:32:32.774Z,28.90
2017-07-18T12:35:00.370Z,28.40
2017-07-18T12:37:27.972Z,27.90
2017-07-18T12:39:55.533Z,27.80
2017-07-18T12:42:23.141Z,28.00
2017-07-18T12:44:50.759Z,28.50
2017-07-18T12:47:18.345Z,28.90
2017-07-18T12:49:45.903Z,28.90
2017-07-18T12:52:13.485Z,29.20
2017-07-18T12:54:41.100Z,29.80
2017-07-18T12:57:08.642Z,30.30
2017-07-18T12:59:36.299Z,30.60
2017-07-18T13:02:03.834Z,30.80
2017-07-18T13:04:31.441Z,30.90
2017-07-18T13:06:59.395Z,31.00
2017-07-18T13:09:26.968Z,30.80
2017-07-18T13:11:54.504Z,30.50
2017-07-18T13:14:22.148Z,30.20
2017-07-18T13:16:49.709Z,30.40
2017-07-18T13:19:17.301Z,31.00
2017-07-18T13:21:45.117Z,30.80
2017-07-18T13:24:12.734Z,30.30
2017-07-18T13:26:40.284Z,29.70
2017-07-18T13:29:07.850Z,30.10
2017-07-18T13:31:35.471Z,30.50
2017-07-18T13:34:03.046Z,31.10
2017-07-18T13:36:30.938Z,30.70
2017-07-18T13:38:58.508Z,30.20
2017-07-18T13:41:26.085Z,29.70
2017-07-18T13:43:54.058Z,28.80
2017-07-18T13:46:22.396Z,28.70
2017-07-18T13:48:49.937Z,28.70
2017-07-18T13:51:17.518Z,29.50
2017-07-18T13:53:45.107Z,30.40
2017-07-18T13:56:12.703Z,30.80
2017-07-18T13:58:40.307Z,31.70
2017-07-18T14:01:07.861Z,31.50
2017-07-18T14:03:35.419Z,31.90
2017-07-18T14:06:03.418Z,31.80
2017-07-18T14:08:31.753Z,31.90
2017-07-18T14:10:59.304Z,31.90
2017-07-18T14:13:26.880Z,32.50
2017-07-18T14:15:54.460Z,33.10
2017-07-18T14:18:22.471Z,33.40
2017-07-18T14:20:50.061Z,33.70
2017-07-18T14:23:17.612Z,32.60
2017-07-18T14:25:45.201Z,32.80
2017-07-18T14:28:12.810Z,32.40
2017-07-18T14:30:40.434Z,32.00
2017-07-18T14:33:08.021Z,31.50
2017-07-18T14:35:35.733Z,30.90
2017-07-18T14:38:03.301Z,30.90
2017-07-18T14:40:30.936Z,30.90
2017-07-18T14:42:58.538Z,29.90
2017-07-18T14:45:26.133Z,29.40
2017-07-18T14:47:53.746Z,29.70
2017-07-18T14:50:21.325Z,30.90
2017-07-18T14:52:49.656Z,30.90
2017-07-18T14:55:17.511Z,30.90
2017-07-18T14:57:45.071Z,30.00
2017-07-18T15:00:12.636Z,29.40
2017-07-18T15:02:40.243Z,28.90
2017-07-18T15:05:08.660Z,28.80
2017-07-18T15:07:36.242Z,28.80
2017-07-18T15:10:03.816Z,29.00
2017-07-18T15:12:31.382Z,30.20
2017-07-18T15:14:58.928Z,31.60
2017-07-18T15:17:26.523Z,32.30
2017-07-18T15:19:54.869Z,33.60
2017-07-18T15:22:22.393Z,33.50
2017-07-18T15:24:50.213Z,34.20
2017-07-18T15:27:17.735Z,34.10
2017-07-18T15:29:45.263Z,33.40
2017-07-18T15:32:12.821Z,32.00
2017-07-18T15:34:40.349Z,30.90
2017-07-18T15:37:07.887Z,30.10
2017-07-18T15:39:35.790Z,30.40
2017-07-18T15:42:03.332Z,29.80
2017-07-18T15:44:30.852Z,29.10
2017-07-18T15:46:58.668Z,28.70
2017-07-18T15:49:26.206Z,28.50
2017-07-18T15:51:53.759Z,28.50
2017-07-18T15:54:21.641Z,28.80
2017-07-18T15:56:49.163Z,29.80
2017-07-18T15:59:16.710Z,30.80
2017-07-18T16:01:46.389Z,30.80
2017-07-18T16:04:13.930Z,30.80
2017-07-18T16:06:41.484Z,31.10
2017-07-18T16:09:09.313Z,31.00
2017-07-18T16:11:36.849Z,30.30
2017-07-18T16:14:04.397Z,29.60
2017-07-18T16:16:33.048Z,28.90
2017-07-18T16:19:00.583Z,28.90
2017-07-18T16:21:28.118Z,28.60
2017-07-18T16:23:56.037Z,28.40
2017-07-18T16:26:23.566Z,28.90
2017-07-18T16:28:51.097Z,29.40
2017-07-18T16:31:18.680Z,29.20
2017-07-18T16:33:46.218Z,28.90
2017-07-18T16:36:13.769Z,28.70
2017-07-18T16:38:41.598Z,28.50
2017-07-18T16:41:09.165Z,28.30
2017-07-18T16:43:36.717Z,28.10
2017-07-18T16:46:05.096Z,27.80
2017-07-18T16:48:32.655Z,27.80
2017-07-18T16:51:00.182Z,27.70
2017-07-18T16:53:28.023Z,27.60
2017-07-18T16:55:55.616Z,27.50
2017-07-18T16:58:23.159Z,27.40
2017-07-18T17:00:50.690Z,27.30
2017-07-18T17:03:18.225Z,27.20
2017-07-18T17:05:45.787Z,27.20
2017-07-18T17:08:13.650Z,27.20
2017-07-18T17:10:41.211Z,27.20
2017-07-18T17:13:08.748Z,27.10
2017-07-18T17:15:36.312Z,27.00
2017-07-18T17:18:03.869Z,26.80
2017-07-18T17:20:31.398Z,26.70
2017-07-18T17:22:58.961Z,26.60
2017-07-18T17:25:30.205Z,26.50
2017-07-18T17:27:57.749Z,26.50
2017-07-18T17:30:25.288Z,26.50
2017-07-18T17:32:53.246Z,26.50
2017-07-18T17:35:21.561Z,26.40
2017-07-18T17:37:49.099Z,26.40
2017-07-18T17:40:16.896Z,26.40
2017-07-18T17:42:44.441Z,26.40
2017-07-18T17:45:11.977Z,26.50
2017-07-18T17:47:40.036Z,26.50
2017-07-18T17:50:08.339Z,26.60
2017-07-18T17:52:35.873Z,26.60
2017-07-18T17:55:03.666Z,26.70
2017-07-18T17:57:31.244Z,26.80
2017-07-18T17:59:59.080Z,27.00
2017-07-18T18:02:26.653Z,27.00
2017-07-18T18:04:54.193Z,27.00
2017-07-18T18:07:22.802Z,27.20
2017-07-18T18:09:50.859Z,27.20
2017-07-18T18:12:18.454Z,27.30
2017-07-18T18:14:46.012Z,27.40
2017-07-18T18:17:14.010Z,27.40
2017-07-18T18:19:41.584Z,27.40
2017-07-18T18:22:09.131Z,27.50
2017-07-18T18:24:36.737Z,27.40
2017-07-18T18:27:04.261Z,27.30
2017-07-18T18:29:32.597Z,27.10
2017-07-18T18:32:00.178Z,27.10
2017-07-18T18:34:27.718Z,27.10
2017-07-18T18:36:55.378Z,26.90
2017-07-18T18:39:23.211Z,26.80
2017-07-18T18:41:50.809Z,26.70
2017-07-18T18:44:18.399Z,26.60
2017-07-18T18:46:46.610Z,26.60
2017-07-18T18:49:14.400Z,26.40
2017-07-18T18:51:41.990Z,26.40
2017-07-18T18:54:09.830Z,26.30
2017-07-18T18:56:37.359Z,26.30
2017-07-18T18:59:04.933Z,26.20
2017-07-18T19:01:32.477Z,26.00
2017-07-18T19:04:00.080Z,25.90
2017-07-18T19:06:27.651Z,25.80
2017-07-18T19:08:55.220Z,25.70
2017-07-18T19:11:22.776Z,25.60
2017-07-18T19:13:50.315Z,25.50
2017-07-18T19:16:18.114Z,25.30
2017-07-18T19:18:45.677Z,25.30
2017-07-18T19:21:13.237Z,25.20
2017-07-18T19:23:40.810Z,25.00
2017-07-18T19:26:08.383Z,24.90
2017-07-18T19:28:35.976Z,24.90
2017-07-18T19:31:03.543Z,24.80
2017-07-18T19:33:31.119Z,24.70
2017-07-18T19:35:58.664Z,24.70
2017-07-18T19:38:26.488Z,24.60
2017-07-18T19:40:54.042Z,24.40
2017-07-18T19:43:22.591Z,24.30
2017-07-18T19:45:52.327Z,24.30
2017-07-18T19:48:19.927Z,24.10
2017-07-18T19:50:47.497Z,24.00
2017-07-18T19:53:15.416Z,23.90
2017-07-18T19:55:42.970Z,23.90
2017-07-18T19:58:10.555Z,23.80
2017-07-18T20:00:38.384Z,23.70
2017-07-18T20:03:05.942Z,23.60
2017-07-18T20:05:33.467Z,23.50
2017-07-18T20:08:01.295Z,23.40
2017-07-18T20:10:28.870Z,23.40
2017-07-18T20:12:56.417Z,23.30
2017-07-18T20:15:24.314Z,23.10
2017-07-18T20:17:51.846Z,23.10
2017-07-18T20:20:19.407Z,23.00
2017-07-18T20:22:46.989Z,22.90
2017-07-18T20:25:14.592Z,22.90
2017-07-18T20:27:42.130Z,22.90
2017-07-18T20:30:10.107Z,22.90
2017-07-18T20:32:37.670Z,22.90
2017-07-18T20:35:05.195Z,22.90
2017-07-18T20:37:33.133Z,22.80
2017-07-18T20:40:00.679Z,22.70
2017-07-18T20:42:28.225Z,22.60
2017-07-18T20:44:56.548Z,22.50
2017-07-18T20:47:24.093Z,22.50
2017-07-18T20:49:51.769Z,22.40
2017-07-18T20:52:19.354Z,22.40
2017-07-18T20:54:46.912Z,22.40
2017-07-18T20:57:14.478Z,22.30
2017-07-18T20:59:42.132Z,22.30
2017-07-18T21:02:09.682Z,22.30
2017-07-18T21:04:37.509Z,22.30
2017-07-18T21:07:05.063Z,22.40
2017-07-18T21:09:32.633Z,22.40
2017-07-18T21:12:00.226Z,22.30
2017-07-18T21:14:27.804Z,22.30
2017-07-18T21:16:55.350Z,22.30
2017-07-18T21:19:22.888Z,22.30
2017-07-18T21:21:50.458Z,22.30
2017-07-18T21:24:18.003Z,22.30
2017-07-18T21:26:45.541Z,22.20
2017-07-18T21:29:13.108Z,22.20
2017-07-18T21:31:40.634Z,22.10
2017-07-18T21:34:08.960Z,22.10
2017-07-18T21:36:36.506Z,22.00
2017-07-18T21:39:04.057Z,22.00
2017-07-18T21:41:31.621Z,22.00
2017-07-18T21:43:59.175Z,21.90
2017-07-18T21:46:26.723Z,21.90
2017-07-18T21:48:54.277Z,21.80
2017-07-18T21:51:22.589Z,21.70
2017-07-18T21:53:50.150Z,21.70
2017-07-18T21:56:17.896Z,21.70
2017-07-18T21:58:45.926Z,21.70
2017-07-18T22:01:13.507Z,21.60
2017-07-18T22:03:41.093Z,21.60
2017-07-18T22:06:08.896Z,21.60
2017-07-18T22:08:36.503Z,21.60
2017-07-18T22:11:04.037Z,21.50
2017-07-18T22:13:31.886Z,21.50
2017-07-18T22:15:59.407Z,21.40
2017-07-18T22:18:26.959Z,21.40
2017-07-18T22:20:54.506Z,21.30
2017-07-18T22:23:22.067Z,21.30
2017-07-18T22:25:49.599Z,21.20
2017-07-18T22:28:18.175Z,21.20
2017-07-18T22:30:45.721Z,21.10
2017-07-18T22:33:13.253Z,21.20
2017-07-18T22:35:40.800Z,21.20
2017-07-18T22:38:08.358Z,21.20
2017-07-18T22:40:35.905Z,21.20
2017-07-18T22:43:03.840Z,21.20
2017-07-18T22:45:31.404Z,21.20
2017-07-18T22:47:58.922Z,21.20
2017-07-18T22:50:26.481Z,21.20
2017-07-18T22:52:54.028Z,21.20
2017-07-18T22:55:21.598Z,21.20
2017-07-18T22:57:49.197Z,21.20
2017-07-18T23:00:16.749Z,21.20
2017-07-18T23:02:44.296Z,21.20
2017-07-18T23:05:12.067Z,21.20
2017-07-18T23:07:39.625Z,21.20
2017-07-18T23:10:07.182Z,21.20
2017-07-18T23:12:35.001Z,21.20
2017-07-18T23:15:02.528Z,21.20
2017-07-18T23:17:30.065Z,21.20
2017-07-18T23:19:57.600Z,21.10
2017-07-18T23:22:25.171Z,21.20
2017-07-18T23:24:52.704Z,21.20
2017-07-18T23:27:20.304Z,21.20
2017-07-18T23:29:47.842Z,21.20
2017-07-18T23:32:15.406Z,21.20
2017-07-18T23:34:42.989Z,21.20
2017-07-18T23:37:10.561Z,21.20
2017-07-18T23:39:38.128Z,21.20
2017-07-18T23:42:05.927Z,21.10
2017-07-18T23:44:34.224Z,21.10
2017-07-18T23:47:01.765Z,21.10
2017-07-18T23:49:29.712Z,21.00
2017-07-18T23:51:57.205Z,21.00
2017-07-18T23:54:24.722Z,21.00
2017-07-18T23:56:52.647Z,21.00
2017-07-18T23:59:20.166Z,21.00
